Time;durP1;ratioP1;P1;durP2;ratioP2;P2;SDS_P1;SDS_P2;PMS_P1;PMS_P2;Temp;Humidity;BMP_temperature;BMP_pressure;BME280_temperature;BME280_humidity;BME280_pressure;Samples;Min_cycle;Max_cycle;Signal;HPM_P1;HPM_P2
2020/12/26 00:00:06;;;;;;;12.98;6.80;;;4.20;95.00;;;;;;5049726;28;20044;-88
2020/12/26 00:02:32;;;;;;;13.55;6.35;;;4.10;94.90;;;;;;5030315;28;20029;-89
2020/12/26 00:04:58;;;;;;;14.45;6.40;;;4.10;94.90;;;;;;5051234;28;20028;-88
2020/12/26 00:07:23;;;;;;;10.30;7.45;;;4.10;94.90;;;;;;5034535;28;20055;-88
2020/12/26 00:09:49;;;;;;;11.35;5.22;;;4.10;95.00;;;;;;5058672;28;20432;-89
2020/12/26 00:12:14;;;;;;;12.00;6.03;;;4.10;95.10;;;;;;5035864;28;20024;-89
2020/12/26 00:14:45;;;;;;;15.38;7.10;;;4.10;95.00;;;;;;5047225;28;20031;-88
2020/12/26 00:17:55;;;;;;;11.60;6.03;;;4.20;95.00;;;;;;5050802;28;20039;-88
2020/12/26 00:20:21;;;;;;;13.50;6.60;;;4.10;95.10;;;;;;5086586;28;20044;-88
2020/12/26 00:22:47;;;;;;;15.07;7.18;;;4.10;95.00;;;;;;5046815;28;20044;-89
2020/12/26 00:25:13;;;;;;;13.25;7.60;;;4.10;95.00;;;;;;5047247;28;20039;-88
2020/12/26 00:27:47;;;;;;;12.85;7.78;;;4.10;95.00;;;;;;5048638;28;20155;-88
2020/12/26 00:30:13;;;;;;;14.80;8.40;;;4.10;95.00;;;;;;5032007;28;20036;-88
2020/12/26 00:32:39;;;;;;;16.33;7.43;;;4.10;95.00;;;;;;5035459;28;20485;-88
2020/12/26 00:35:06;;;;;;;14.32;8.73;;;4.10;95.10;;;;;;5018741;28;20032;-88
2020/12/26 00:38:02;;;;;;;12.32;6.95;;;4.00;94.90;;;;;;5056547;28;20028;-88
2020/12/26 00:40:29;;;;;;;12.95;6.95;;;4.00;95.10;;;;;;5077395;28;20075;-88
2020/12/26 00:43:09;;;;;;;16.20;7.78;;;4.00;95.10;;;;;;5025023;28;20463;-89
2020/12/26 00:45:36;;;;;;;14.43;7.05;;;4.00;95.00;;;;;;5057487;28;20040;-88
2020/12/26 00:48:02;;;;;;;14.05;7.53;;;4.00;95.20;;;;;;5039145;28;20021;-88
2020/12/26 00:50:33;;;;;;;11.95;7.15;;;4.00;95.10;;;;;;5022448;28;20078;-88
2020/12/26 00:53:09;;;;;;;11.68;6.50;;;4.00;95.10;;;;;;5027256;28;20020;-88
2020/12/26 00:55:53;;;;;;;15.25;8.32;;;4.00;95.10;;;;;;5014315;28;20057;-87
2020/12/26 00:58:40;;;;;;;15.68;7.18;;;4.00;95.00;;;;;;5022562;28;20025;-88
2020/12/26 01:01:06;;;;;;;14.23;7.65;;;4.00;95.10;;;;;;5017594;28;20053;-88
2020/12/26 01:03:39;;;;;;;11.60;6.20;;;4.00;95.10;;;;;;5017673;28;20038;-88
2020/12/26 01:06:15;;;;;;;11.55;5.93;;;4.00;95.20;;;;;;5034101;28;20053;-88
2020/12/26 01:08:42;;;;;;;11.05;5.97;;;4.00;95.20;;;;;;5017740;28;20037;-88
2020/12/26 01:11:08;;;;;;;14.77;6.80;;;4.00;95.20;;;;;;5052080;22;20064;-85
2020/12/26 01:13:39;;;;;;;10.95;6.45;;;4.10;95.20;;;;;;5041749;28;20017;-86
2020/12/26 01:16:14;;;;;;;12.02;6.47;;;4.00;95.20;;;;;;5047073;28;20027;-85
2020/12/26 01:18:47;;;;;;;11.45;6.18;;;4.10;95.30;;;;;;5057913;28;20029;-86
2020/12/26 01:21:19;;;;;;;14.35;7.40;;;4.10;95.30;;;;;;5047215;28;20102;-85
2020/12/26 01:23:50;;;;;;;11.30;6.38;;;4.10;95.20;;;;;;5041466;28;20067;-85
2020/12/26 01:26:16;;;;;;;14.40;7.82;;;4.10;95.30;;;;;;5054802;28;20017;-86
2020/12/26 01:28:58;;;;;;;12.73;6.22;;;4.10;95.10;;;;;;5055701;28;20060;-85
2020/12/26 01:31:24;;;;;;;8.77;5.80;;;4.10;95.60;;;;;;5048709;28;20025;-85
2020/12/26 01:33:51;;;;;;;14.00;6.68;;;4.20;95.30;;;;;;5021321;28;20024;-86
2020/12/26 01:36:17;;;;;;;14.13;6.13;;;4.20;95.30;;;;;;5018042;28;20125;-85
2020/12/26 01:38:43;;;;;;;11.70;5.88;;;4.20;95.30;;;;;;5047809;28;20064;-85
2020/12/26 01:41:38;;;;;;;12.15;5.78;;;4.20;95.30;;;;;;5035209;28;20029;-85
2020/12/26 01:44:03;;;;;;;12.27;7.47;;;4.20;95.40;;;;;;5018210;28;20048;-86
2020/12/26 01:46:32;;;;;;;11.25;6.53;;;4.20;95.20;;;;;;5046068;28;20037;-86
2020/12/26 01:49:12;;;;;;;11.70;6.15;;;4.20;95.30;;;;;;5030339;28;20033;-85
2020/12/26 01:51:45;;;;;;;17.02;9.02;;;4.20;95.30;;;;;;5029275;28;20115;-85
2020/12/26 01:54:13;;;;;;;12.68;7.13;;;4.20;95.10;;;;;;4974127;28;20039;-85
2020/12/26 01:56:47;;;;;;;14.57;7.43;;;4.10;95.20;;;;;;4963304;28;20035;-85
2020/12/26 01:59:14;;;;;;;10.80;7.30;;;4.10;95.20;;;;;;4959354;28;20039;-85
2020/12/26 02:01:41;;;;;;;13.07;7.00;;;4.20;95.30;;;;;;4944594;28;20038;-85
2020/12/26 02:04:10;;;;;;;14.65;7.75;;;4.20;95.30;;;;;;4974237;28;20054;-85
2020/12/26 02:06:38;;;;;;;13.88;9.02;;;4.30;95.30;;;;;;4959416;28;20850;-85
2020/12/26 02:09:06;;;;;;;14.27;7.30;;;4.20;95.20;;;;;;4954754;28;20031;-85
2020/12/26 02:11:41;;;;;;;10.77;7.30;;;4.20;95.30;;;;;;4935323;28;20050;-85
2020/12/26 02:14:13;;;;;;;11.07;6.82;;;4.20;95.30;;;;;;4948092;28;20043;-85
2020/12/26 02:16:56;;;;;;;11.10;7.25;;;4.30;95.40;;;;;;4993373;28;20113;-86
2020/12/26 02:19:25;;;;;;;9.05;5.88;;;4.20;95.40;;;;;;4972822;28;20037;-85
2020/12/26 02:21:59;;;;;;;12.02;6.93;;;4.30;95.50;;;;;;4999002;28;20077;-86
2020/12/26 02:24:25;;;;;;;11.45;6.57;;;4.30;95.40;;;;;;4996556;28;20534;-85
2020/12/26 02:26:53;;;;;;;10.95;5.93;;;4.40;95.40;;;;;;4983636;28;20027;-85
2020/12/26 02:29:18;;;;;;;10.95;5.75;;;4.40;95.40;;;;;;4955867;28;20070;-85
2020/12/26 02:31:44;;;;;;;13.57;7.78;;;4.40;95.40;;;;;;4956206;28;20088;-85
2020/12/26 02:34:10;;;;;;;10.35;6.20;;;4.30;95.30;;;;;;5014194;28;20045;-85
2020/12/26 02:36:36;;;;;;;9.77;6.53;;;4.40;95.40;;;;;;4989716;28;20030;-86
2020/12/26 02:39:02;;;;;;;12.38;6.30;;;4.40;95.40;;;;;;4994883;28;20077;-85
2020/12/26 02:41:37;;;;;;;13.43;6.80;;;4.40;95.50;;;;;;5012518;28;20026;-85
2020/12/26 02:44:03;;;;;;;12.35;7.45;;;4.40;95.50;;;;;;4996120;28;20045;-86
2020/12/26 02:46:29;;;;;;;11.32;7.22;;;4.40;95.50;;;;;;5003506;28;20095;-85
2020/12/26 02:48:54;;;;;;;13.48;7.30;;;4.40;95.50;;;;;;4999103;28;20039;-85
2020/12/26 02:51:20;;;;;;;10.32;6.63;;;4.50;95.50;;;;;;4993099;28;20026;-85
2020/12/26 02:53:46;;;;;;;10.93;7.25;;;4.50;95.60;;;;;;4987991;28;20034;-85
2020/12/26 02:56:11;;;;;;;13.52;7.15;;;4.50;95.60;;;;;;5009539;28;20038;-86
2020/12/26 02:58:40;;;;;;;13.02;7.70;;;4.50;95.60;;;;;;5011820;28;20064;-85
2020/12/26 03:01:09;;;;;;;10.57;7.35;;;4.50;95.60;;;;;;5032419;28;20033;-85
2020/12/26 03:03:34;;;;;;;14.38;8.60;;;4.60;95.60;;;;;;5021089;28;20127;-85
2020/12/26 03:06:12;;;;;;;15.68;8.52;;;4.60;95.50;;;;;;5019734;28;20119;-85
2020/12/26 03:08:59;;;;;;;15.50;9.57;;;4.60;95.50;;;;;;5019284;28;20094;-85
2020/12/26 03:11:47;;;;;;;15.40;9.30;;;4.50;95.50;;;;;;5038139;28;20076;-85
2020/12/26 03:14:15;;;;;;;13.82;9.10;;;4.50;95.40;;;;;;5052415;28;20036;-84
2020/12/26 03:16:59;;;;;;;14.43;9.65;;;4.50;95.50;;;;;;5035680;28;20053;-85
2020/12/26 03:19:25;;;;;;;21.00;11.45;;;4.50;95.40;;;;;;5048990;28;20040;-85
2020/12/26 03:21:53;;;;;;;15.65;10.55;;;4.40;95.40;;;;;;5067271;28;20037;-85
2020/12/26 03:24:22;;;;;;;13.27;7.95;;;4.40;95.50;;;;;;5047444;28;20035;-86
2020/12/26 03:26:47;;;;;;;20.85;10.75;;;4.40;95.50;;;;;;5041385;28;20033;-86
2020/12/26 03:29:13;;;;;;;12.23;8.05;;;4.40;95.40;;;;;;5042129;28;20021;-86
2020/12/26 03:31:39;;;;;;;15.88;9.13;;;4.30;95.50;;;;;;5050801;28;20034;-86
2020/12/26 03:34:12;;;;;;;15.40;9.73;;;4.30;95.40;;;;;;5052788;28;20359;-86
2020/12/26 03:36:37;;;;;;;12.65;7.40;;;4.20;95.40;;;;;;5066085;28;20028;-86
2020/12/26 03:39:06;;;;;;;14.68;7.07;;;4.30;95.50;;;;;;5035340;28;20520;-86
2020/12/26 03:41:32;;;;;;;11.38;7.20;;;4.30;95.50;;;;;;5052923;28;20045;-89
2020/12/26 03:44:06;;;;;;;18.33;9.35;;;4.30;95.50;;;;;;5046065;28;20029;-89
2020/12/26 03:46:39;;;;;;;12.10;7.22;;;4.30;95.40;;;;;;5027971;28;20025;-89
2020/12/26 03:49:12;;;;;;;11.60;7.80;;;4.20;95.50;;;;;;5058581;28;20028;-88
2020/12/26 03:51:46;;;;;;;16.73;8.80;;;4.10;95.60;;;;;;5060396;28;20017;-89
2020/12/26 03:54:12;;;;;;;15.82;8.45;;;4.10;95.70;;;;;;5035344;28;20433;-89
2020/12/26 03:57:02;;;;;;;14.95;8.18;;;4.10;96.00;;;;;;5016410;28;20033;-88
2020/12/26 03:59:28;;;;;;;11.75;7.45;;;4.10;96.00;;;;;;5039857;28;20025;-89
2020/12/26 04:01:57;;;;;;;16.00;7.72;;;4.10;95.90;;;;;;5037019;28;20186;-87
2020/12/26 04:04:22;;;;;;;13.27;7.45;;;4.10;95.90;;;;;;5034720;28;20474;-89
2020/12/26 04:06:54;;;;;;;10.90;6.35;;;4.10;95.90;;;;;;5031255;28;20055;-88
2020/12/26 04:09:20;;;;;;;14.88;6.78;;;4.10;95.90;;;;;;5038356;28;20075;-89
2020/12/26 04:11:51;;;;;;;15.40;9.45;;;4.10;95.80;;;;;;5029847;28;20068;-89
2020/12/26 04:14:20;;;;;;;13.38;7.43;;;4.10;96.10;;;;;;5038372;28;20029;-89
2020/12/26 04:16:46;;;;;;;14.15;7.18;;;4.10;95.90;;;;;;5023507;28;20021;-88
2020/12/26 04:19:17;;;;;;;12.27;6.95;;;4.10;96.00;;;;;;5034901;28;20056;-89
2020/12/26 04:21:55;;;;;;;12.52;7.57;;;4.10;96.00;;;;;;5055402;28;20068;-88
2020/12/26 04:24:24;;;;;;;14.50;7.35;;;4.10;95.90;;;;;;5035508;28;20033;-88
2020/12/26 04:26:51;;;;;;;13.57;7.50;;;4.10;95.90;;;;;;5019156;28;20056;-89
2020/12/26 04:29:29;;;;;;;13.88;7.85;;;4.10;95.80;;;;;;5065038;28;20021;-88
2020/12/26 04:32:01;;;;;;;15.05;7.72;;;4.00;95.80;;;;;;5005999;28;20048;-89
2020/12/26 04:34:26;;;;;;;10.50;5.65;;;4.00;95.80;;;;;;5015760;28;20025;-90
2020/12/26 04:37:21;;;;;;;18.02;7.15;;;4.10;95.90;;;;;;5051301;28;20021;-88
2020/12/26 04:39:50;;;;;;;15.77;8.13;;;4.00;95.80;;;;;;5052143;28;20033;-89
2020/12/26 04:42:21;;;;;;;12.15;6.40;;;4.00;95.80;;;;;;5032816;28;20360;-89
2020/12/26 04:45:05;;;;;;;14.38;7.50;;;4.00;95.90;;;;;;5030708;28;20128;-88
2020/12/26 04:47:56;;;;;;;14.00;6.97;;;4.00;95.80;;;;;;5010523;28;20034;-88
2020/12/26 04:50:34;;;;;;;12.77;7.53;;;4.00;95.80;;;;;;4993720;28;20422;-88
2020/12/26 04:53:18;;;;;;;11.82;6.50;;;4.00;95.80;;;;;;5008748;28;20022;-88
2020/12/26 04:55:49;;;;;;;14.43;6.70;;;4.00;95.80;;;;;;4979720;28;20125;-88
2020/12/26 04:58:16;;;;;;;11.20;6.55;;;4.00;95.80;;;;;;5006495;28;20084;-88
2020/12/26 05:00:42;;;;;;;12.40;7.50;;;4.00;95.80;;;;;;5011319;28;20034;-88
2020/12/26 05:03:17;;;;;;;11.05;6.43;;;3.80;95.80;;;;;;4975098;28;20049;-88
2020/12/26 05:06:15;;;;;;;9.43;6.22;;;3.90;95.80;;;;;;4994856;28;20474;-88
2020/12/26 05:08:41;;;;;;;12.15;7.05;;;3.90;95.80;;;;;;5022305;28;20128;-86
2020/12/26 05:11:13;;;;;;;17.15;7.75;;;3.90;95.80;;;;;;5014121;28;20550;-86
2020/12/26 05:14:08;;;;;;;18.92;8.10;;;3.80;95.70;;;;;;5050802;28;20536;-86
2020/12/26 05:16:35;;;;;;;18.50;7.97;;;3.80;95.70;;;;;;5037820;28;20036;-86
2020/12/26 05:19:00;;;;;;;11.25;5.68;;;3.80;95.90;;;;;;5063924;28;20024;-86
2020/12/26 05:21:33;;;;;;;13.20;7.50;;;3.80;96.00;;;;;;5040887;28;20020;-86
2020/12/26 05:24:28;;;;;;;12.55;6.47;;;3.70;95.80;;;;;;5054781;28;20495;-86
2020/12/26 05:27:06;;;;;;;11.15;6.85;;;3.80;95.90;;;;;;5038878;28;20045;-86
2020/12/26 05:29:36;;;;;;;8.75;5.70;;;3.70;95.80;;;;;;5052581;28;20044;-86
2020/12/26 05:32:28;;;;;;;14.20;7.10;;;3.70;95.90;;;;;;5051517;28;20060;-85
2020/12/26 05:35:19;;;;;;;10.73;6.07;;;3.70;95.90;;;;;;5054828;28;20017;-86
2020/12/26 05:37:45;;;;;;;11.35;6.93;;;3.70;96.00;;;;;;5055120;28;20056;-86
2020/12/26 05:40:24;;;;;;;11.65;6.18;;;3.70;95.90;;;;;;5022015;28;20057;-85
2020/12/26 05:42:51;;;;;;;14.13;8.40;;;3.70;95.90;;;;;;5054227;28;20044;-85
2020/12/26 05:45:16;;;;;;;17.85;8.45;;;3.70;96.00;;;;;;5043118;28;20036;-86
2020/12/26 05:48:20;;;;;;;17.63;8.45;;;3.70;96.10;;;;;;5044208;28;20034;-85
2020/12/26 05:50:47;;;;;;;14.45;7.10;;;3.70;96.10;;;;;;5025884;28;20024;-85
2020/12/26 05:53:20;;;;;;;14.87;7.20;;;3.70;96.10;;;;;;5035561;28;20068;-86
2020/12/26 05:55:46;;;;;;;12.80;7.30;;;3.70;96.10;;;;;;5058074;28;20054;-86
2020/12/26 05:58:26;;;;;;;14.07;8.30;;;3.70;96.10;;;;;;5045426;28;20021;-86
2020/12/26 06:01:03;;;;;;;16.17;7.43;;;3.60;96.10;;;;;;5024294;28;20119;-86
2020/12/26 06:03:50;;;;;;;12.00;8.10;;;3.70;96.20;;;;;;5013569;28;20093;-86
2020/12/26 06:06:43;;;;;;;11.43;7.35;;;3.70;96.20;;;;;;5007439;28;20045;-86
2020/12/26 06:09:10;;;;;;;9.15;6.13;;;3.70;96.10;;;;;;4939971;29;20047;-86
2020/12/26 06:11:45;;;;;;;12.27;7.13;;;3.80;96.10;;;;;;4907717;29;20095;-86
2020/12/26 06:14:24;;;;;;;11.40;6.03;;;3.80;96.00;;;;;;4969050;28;20031;-86
2020/12/26 06:16:56;;;;;;;11.25;7.90;;;3.80;96.00;;;;;;4939652;29;20028;-86
2020/12/26 06:19:46;;;;;;;15.13;8.38;;;3.80;96.00;;;;;;4954672;29;20036;-85
2020/12/26 06:22:12;;;;;;;11.35;7.05;;;3.80;96.00;;;;;;4946348;29;20054;-85
2020/12/26 06:24:48;;;;;;;12.32;8.07;;;3.90;96.00;;;;;;4920697;29;20035;-85
2020/12/26 06:27:14;;;;;;;12.90;8.05;;;3.90;96.00;;;;;;4907519;29;20505;-86
2020/12/26 06:29:48;;;;;;;14.35;9.55;;;3.90;96.00;;;;;;4945661;29;20070;-86
2020/12/26 06:32:14;;;;;;;13.43;9.40;;;3.90;95.80;;;;;;4942599;28;20022;-86
2020/12/26 06:34:41;;;;;;;16.30;10.60;;;3.80;95.80;;;;;;4958341;28;20066;-86
2020/12/26 06:37:16;;;;;;;15.30;8.63;;;3.80;95.90;;;;;;4942613;28;20039;-86
2020/12/26 06:40:04;;;;;;;20.60;10.48;;;3.80;96.00;;;;;;4952211;28;20121;-86
2020/12/26 06:42:40;;;;;;;19.40;11.80;;;3.80;95.90;;;;;;4983101;28;20526;-86
2020/12/26 06:45:37;;;;;;;17.35;11.45;;;3.80;95.90;;;;;;4974616;28;20504;-86
2020/12/26 06:48:46;;;;;;;14.68;9.95;;;3.80;96.00;;;;;;4971185;28;20048;-86
2020/12/26 06:51:45;;;;;;;16.15;10.10;;;3.80;96.00;;;;;;4953410;28;20117;-86
2020/12/26 06:54:14;;;;;;;14.32;10.15;;;3.80;95.90;;;;;;4982452;28;20030;-85
2020/12/26 06:56:51;;;;;;;18.70;12.20;;;3.80;96.00;;;;;;4991691;28;20038;-85
2020/12/26 06:59:53;;;;;;;20.27;11.82;;;3.80;95.90;;;;;;5016376;28;20041;-85
2020/12/26 07:03:05;;;;;;;19.77;11.82;;;3.80;96.00;;;;;;5013756;28;20028;-88
2020/12/26 07:05:39;;;;;;;20.83;11.32;;;3.80;96.00;;;;;;4988086;28;20101;-88
2020/12/26 07:08:06;;;;;;;22.40;12.70;;;3.90;96.00;;;;;;4970079;28;20064;-88
2020/12/26 07:10:39;;;;;;;23.92;13.85;;;3.90;96.00;;;;;;5032383;28;20135;-88
2020/12/26 07:13:05;;;;;;;23.50;13.23;;;3.80;95.90;;;;;;5025536;28;20512;-88
2020/12/26 07:15:37;;;;;;;22.98;12.88;;;3.80;96.00;;;;;;5041900;28;20033;-88
2020/12/26 07:18:21;;;;;;;21.45;13.35;;;3.80;96.10;;;;;;5051690;28;20013;-88
2020/12/26 07:20:50;;;;;;;22.33;12.20;;;3.70;96.10;;;;;;5049451;28;20147;-87
2020/12/26 07:23:17;;;;;;;20.92;11.48;;;3.80;96.10;;;;;;5033514;28;20072;-89
2020/12/26 07:25:48;;;;;;;17.05;11.90;;;3.80;96.10;;;;;;5161502;22;20163;-88
2020/12/26 07:28:46;;;;;;;23.08;12.88;;;3.90;96.00;;;;;;5072085;28;20473;-86
2020/12/26 07:31:18;;;;;;;20.20;11.75;;;3.80;95.90;;;;;;5002031;28;20041;-86
2020/12/26 07:33:49;;;;;;;20.67;12.30;;;3.80;96.00;;;;;;4983994;28;20538;-86
2020/12/26 07:36:24;;;;;;;20.10;11.07;;;3.80;95.90;;;;;;4963936;28;20040;-85
2020/12/26 07:39:08;;;;;;;19.73;12.63;;;3.90;95.90;;;;;;4992153;28;20491;-84
2020/12/26 07:41:43;;;;;;;20.48;12.13;;;3.90;95.90;;;;;;4987579;28;20038;-88
2020/12/26 07:44:18;;;;;;;16.20;11.20;;;3.80;95.90;;;;;;4976059;28;20038;-88
2020/12/26 07:46:56;;;;;;;19.95;12.25;;;3.90;95.90;;;;;;4973474;28;20470;-87
2020/12/26 07:49:24;;;;;;;20.70;12.90;;;3.90;95.80;;;;;;4981573;28;20039;-88
2020/12/26 07:52:24;;;;;;;18.25;12.15;;;3.90;95.80;;;;;;4975738;28;20030;-85
2020/12/26 07:55:21;;;;;;;18.42;11.95;;;3.90;95.80;;;;;;5018777;28;20024;-86
2020/12/26 07:58:00;;;;;;;19.35;12.38;;;3.90;95.70;;;;;;5076121;28;20046;-86
2020/12/26 08:00:46;;;;;;;20.08;11.68;;;3.90;95.80;;;;;;5053638;28;20032;-86
2020/12/26 08:03:13;;;;;;;18.75;10.98;;;3.80;95.70;;;;;;5046742;28;20036;-86
2020/12/26 08:05:48;;;;;;;21.67;11.82;;;3.90;95.90;;;;;;5059806;28;20024;-88
2020/12/26 08:08:24;;;;;;;19.80;11.98;;;3.80;95.80;;;;;;5071448;28;20055;-88
2020/12/26 08:11:06;;;;;;;18.38;11.55;;;3.90;95.90;;;;;;5039788;28;20052;-88
2020/12/26 08:14:09;;;;;;;17.45;10.75;;;3.90;95.80;;;;;;5041877;28;20554;-88
2020/12/26 08:16:42;;;;;;;19.60;11.00;;;3.80;96.10;;;;;;5071929;28;20025;-88
2020/12/26 08:19:08;;;;;;;15.60;9.93;;;3.80;95.90;;;;;;5057456;28;20040;-87
2020/12/26 08:21:43;;;;;;;16.63;10.02;;;3.80;96.00;;;;;;5041815;28;20027;-88
2020/12/26 08:24:23;;;;;;;15.40;9.43;;;3.80;96.00;;;;;;5059145;28;20024;-85
2020/12/26 08:26:57;;;;;;;15.45;9.90;;;3.80;96.00;;;;;;5038696;28;20048;-86
2020/12/26 08:29:29;;;;;;;17.23;9.98;;;3.80;96.00;;;;;;5035841;28;20032;-85
2020/12/26 08:32:08;;;;;;;13.63;8.15;;;3.90;96.00;;;;;;5075592;28;20020;-86
2020/12/26 08:34:40;;;;;;;14.73;8.93;;;3.90;96.10;;;;;;5060809;28;20074;-86
2020/12/26 08:37:49;;;;;;;14.80;8.43;;;3.90;96.00;;;;;;5062797;28;20503;-85
2020/12/26 08:40:17;;;;;;;18.55;9.00;;;3.90;96.00;;;;;;5055974;28;20060;-86
2020/12/26 08:42:46;;;;;;;13.00;8.13;;;3.90;96.00;;;;;;5033795;28;20149;-86
2020/12/26 08:45:37;;;;;;;14.27;7.93;;;3.90;96.10;;;;;;5055014;28;20112;-86
2020/12/26 08:48:27;;;;;;;15.32;8.63;;;3.90;96.00;;;;;;5064750;28;20417;-86
2020/12/26 08:51:36;;;;;;;17.80;8.57;;;4.00;96.00;;;;;;5059188;28;20029;-85
2020/12/26 08:54:02;;;;;;;13.27;8.02;;;3.90;96.00;;;;;;4955347;28;20058;-86
2020/12/26 08:56:46;;;;;;;13.45;7.82;;;3.90;96.00;;;;;;4975596;28;20065;-86
2020/12/26 08:59:30;;;;;;;12.60;7.55;;;3.90;96.00;;;;;;4978025;28;20072;-85
2020/12/26 09:02:03;;;;;;;14.80;7.78;;;3.90;96.00;;;;;;5048603;28;20051;-86
2020/12/26 09:04:34;;;;;;;12.93;7.35;;;4.00;96.00;;;;;;5040425;28;20131;-85
2020/12/26 09:07:26;;;;;;;14.13;7.22;;;4.00;95.90;;;;;;5040251;28;20492;-86
2020/12/26 09:09:52;;;;;;;14.18;6.60;;;3.90;95.80;;;;;;5067793;28;20032;-85
2020/12/26 09:12:37;;;;;;;11.57;6.95;;;3.90;95.70;;;;;;5045427;28;20029;-85
2020/12/26 09:15:09;;;;;;;14.98;7.25;;;3.90;95.80;;;;;;5045223;28;20021;-85
2020/12/26 09:17:45;;;;;;;13.88;7.22;;;3.90;95.70;;;;;;5056619;28;20032;-85
2020/12/26 09:20:11;;;;;;;14.45;7.25;;;4.00;95.90;;;;;;5049420;28;20032;-85
2020/12/26 09:22:43;;;;;;;15.20;7.45;;;4.00;95.60;;;;;;5061578;28;20122;-85
2020/12/26 09:25:27;;;;;;;11.85;7.10;;;3.90;95.60;;;;;;5048021;28;20080;-85
2020/12/26 09:28:11;;;;;;;13.45;6.95;;;4.00;95.60;;;;;;5077750;28;20039;-85
2020/12/26 09:30:37;;;;;;;16.98;7.40;;;4.00;95.60;;;;;;5095402;28;20039;-85
2020/12/26 09:33:35;;;;;;;13.93;7.97;;;4.00;95.70;;;;;;5075718;28;20142;-87
2020/12/26 09:36:20;;;;;;;15.80;6.65;;;4.00;95.70;;;;;;5026615;28;20061;-86
2020/12/26 09:38:54;;;;;;;13.88;6.70;;;4.00;95.80;;;;;;5094302;28;20384;-86
2020/12/26 09:41:25;;;;;;;13.77;6.28;;;4.00;95.80;;;;;;5052707;28;20035;-89
2020/12/26 09:44:07;;;;;;;18.80;6.78;;;4.10;95.80;;;;;;5078716;28;20028;-89
2020/12/26 09:46:56;;;;;;;10.95;6.10;;;4.10;95.90;;;;;;5071166;28;20048;-89
2020/12/26 09:49:36;;;;;;;10.52;6.38;;;4.20;95.90;;;;;;5040330;28;20036;-89
2020/12/26 09:52:02;;;;;;;14.18;6.10;;;4.20;95.80;;;;;;5059370;28;20024;-88
2020/12/26 09:54:36;;;;;;;10.32;5.70;;;4.30;95.80;;;;;;5077683;28;20114;-89
2020/12/26 09:57:05;;;;;;;13.65;6.65;;;4.30;95.60;;;;;;5035120;28;20028;-89
2020/12/26 09:59:36;;;;;;;11.90;4.95;;;4.40;95.60;;;;;;5074424;28;20024;-89
2020/12/26 10:02:02;;;;;;;12.10;5.28;;;4.50;95.20;;;;;;5046828;28;20449;-90
2020/12/26 10:04:28;;;;;;;11.00;4.80;;;4.50;95.10;;;;;;5041340;28;20056;-90
2020/12/26 10:06:54;;;;;;;16.20;4.72;;;4.50;94.60;;;;;;5052976;28;20507;-91
2020/12/26 10:09:26;;;;;;;11.07;4.80;;;4.50;94.70;;;;;;5077094;28;20031;-90
2020/12/26 10:12:11;;;;;;;10.20;4.82;;;4.50;94.60;;;;;;5062106;28;20393;-90
2020/12/26 10:14:36;;;;;;;10.55;4.65;;;4.50;94.70;;;;;;5060125;28;20473;-88
2020/12/26 10:17:02;;;;;;;10.75;4.43;;;4.50;94.40;;;;;;5059545;28;20097;-89
2020/12/26 10:19:28;;;;;;;11.15;4.47;;;4.60;94.30;;;;;;5075826;28;20012;-90
2020/12/26 10:21:53;;;;;;;9.43;4.10;;;4.50;94.10;;;;;;5064800;28;20066;-91
2020/12/26 10:24:19;;;;;;;10.95;4.63;;;4.50;94.20;;;;;;5064368;28;20138;-90
2020/12/26 10:26:45;;;;;;;11.27;4.30;;;4.50;94.30;;;;;;5042135;28;20051;-89
2020/12/26 10:29:19;;;;;;;10.45;4.47;;;4.50;94.30;;;;;;5051241;28;20382;-89
2020/12/26 10:31:45;;;;;;;12.60;4.05;;;4.50;94.30;;;;;;5064139;28;20020;-89
2020/12/26 10:34:11;;;;;;;7.30;3.90;;;4.50;94.20;;;;;;5042091;28;20385;-90
2020/12/26 10:36:51;;;;;;;7.60;4.13;;;4.50;94.10;;;;;;5072259;28;20028;-88
2020/12/26 10:39:49;;;;;;;11.00;3.80;;;4.60;94.10;;;;;;5058252;28;20023;-89
2020/12/26 10:42:15;;;;;;;8.73;4.15;;;4.50;93.80;;;;;;5066221;28;20024;-89
2020/12/26 10:44:52;;;;;;;9.18;4.00;;;4.40;94.00;;;;;;5074540;28;20135;-88
2020/12/26 10:47:21;;;;;;;7.65;3.70;;;4.40;94.00;;;;;;5045802;28;20036;-88
2020/12/26 10:50:01;;;;;;;7.80;3.55;;;4.50;94.20;;;;;;5072525;28;20028;-88
2020/12/26 10:52:38;;;;;;;6.70;3.40;;;4.50;94.20;;;;;;5049174;28;20032;-88
2020/12/26 10:55:04;;;;;;;8.15;3.67;;;4.50;94.10;;;;;;5060982;28;20021;-88
2020/12/26 10:57:29;;;;;;;6.57;3.63;;;4.50;93.80;;;;;;5065610;28;20024;-88
2020/12/26 10:59:58;;;;;;;10.40;3.45;;;4.50;93.80;;;;;;5077931;28;20158;-89
2020/12/26 11:02:37;;;;;;;7.05;3.25;;;4.50;94.00;;;;;;5060995;28;20105;-89
2020/12/26 11:05:26;;;;;;;8.20;3.28;;;4.60;94.00;;;;;;5062492;28;20032;-88
2020/12/26 11:07:56;;;;;;;6.38;2.83;;;4.50;93.90;;;;;;5069329;28;20104;-88
2020/12/26 11:10:22;;;;;;;7.03;3.10;;;4.50;93.80;;;;;;5063558;28;20126;-89
2020/12/26 11:13:07;;;;;;;7.75;3.40;;;4.60;94.00;;;;;;5075456;28;20070;-88
2020/12/26 11:15:36;;;;;;;5.88;3.03;;;4.60;94.00;;;;;;5058935;28;20017;-88
2020/12/26 11:18:05;;;;;;;7.20;3.15;;;4.70;94.00;;;;;;5041059;28;20044;-88
2020/12/26 11:20:31;;;;;;;9.50;3.40;;;4.70;93.70;;;;;;5074817;28;20028;-90
2020/12/26 11:22:57;;;;;;;11.95;3.50;;;4.70;93.50;;;;;;5057933;28;20660;-89
2020/12/26 11:25:23;;;;;;;9.10;3.30;;;4.80;93.90;;;;;;5055112;28;20441;-90
2020/12/26 11:27:49;;;;;;;8.50;3.40;;;4.70;93.60;;;;;;5047003;28;20115;-90
2020/12/26 11:30:16;;;;;;;7.68;2.67;;;4.70;93.80;;;;;;5038967;28;20422;-88
2020/12/26 11:32:42;;;;;;;6.85;2.90;;;4.70;93.70;;;;;;5041343;28;20032;-90
2020/12/26 11:35:38;;;;;;;;;;;;;;;;;;;;;
2020/12/26 11:41:29;;;;;;;17.08;3.28;;;4.80;93.80;;;;;;5058992;28;20032;-87
2020/12/26 11:43:56;;;;;;;6.32;2.83;;;4.70;93.70;;;;;;5072623;28;20020;-87
2020/12/26 11:46:39;;;;;;;10.23;3.10;;;4.70;94.00;;;;;;5061541;28;20036;-87
2020/12/26 11:49:20;;;;;;;6.70;2.95;;;4.80;94.00;;;;;;5053697;28;20466;-88
2020/12/26 11:52:06;;;;;;;10.18;3.03;;;4.80;93.80;;;;;;5060145;28;20148;-88
2020/12/26 11:54:31;;;;;;;7.13;3.10;;;4.80;93.70;;;;;;5035796;28;20025;-88
2020/12/26 11:56:57;;;;;;;8.68;3.47;;;4.80;93.70;;;;;;5035972;28;21593;-88
2020/12/26 11:59:23;;;;;;;5.60;2.50;;;4.80;93.80;;;;;;5055264;28;20123;-88
2020/12/26 12:02:22;;;;;;;9.25;2.95;;;4.80;93.60;;;;;;5043605;28;20027;-87
2020/12/26 12:04:53;;;;;;;8.82;2.60;;;4.80;93.60;;;;;;4997485;28;20045;-87
2020/12/26 12:07:25;;;;;;;7.85;2.78;;;4.80;93.60;;;;;;5072190;28;20056;-89
2020/12/26 12:09:51;;;;;;;9.63;2.95;;;4.90;93.80;;;;;;5056242;28;20032;-88
2020/12/26 12:12:20;;;;;;;8.43;2.92;;;4.90;93.60;;;;;;5047442;28;20147;-87
2020/12/26 12:14:45;;;;;;;9.35;3.00;;;4.90;93.60;;;;;;5058795;28;20050;-88
2020/12/26 12:17:11;;;;;;;7.05;2.75;;;4.90;93.70;;;;;;5084414;28;20549;-88
2020/12/26 12:19:37;;;;;;;9.55;2.97;;;4.90;93.80;;;;;;5056198;28;20370;-86
2020/12/26 12:22:03;;;;;;;6.45;2.85;;;4.90;93.50;;;;;;5032402;28;20023;-88
2020/12/26 12:24:28;;;;;;;5.80;2.53;;;4.90;93.30;;;;;;5056478;28;20084;-88
2020/12/26 12:26:54;;;;;;;6.22;3.15;;;4.90;93.30;;;;;;5042885;28;20131;-87
2020/12/26 12:29:19;;;;;;;5.50;2.60;;;5.00;93.50;;;;;;5063326;28;20043;-88
2020/12/26 12:31:48;;;;;;;8.00;3.30;;;5.00;93.60;;;;;;5039671;28;20036;-86
2020/12/26 12:34:14;;;;;;;9.52;3.00;;;5.00;93.40;;;;;;5047627;28;20036;-85
2020/12/26 12:36:39;;;;;;;8.07;2.70;;;5.00;93.10;;;;;;5058514;28;20427;-84
2020/12/26 12:39:05;;;;;;;9.77;3.28;;;5.00;93.20;;;;;;5081646;28;20380;-85
2020/12/26 12:41:31;;;;;;;9.38;3.25;;;5.00;93.00;;;;;;5039774;28;20470;-85
2020/12/26 12:43:56;;;;;;;8.15;3.22;;;5.10;92.90;;;;;;5075274;28;20024;-86
2020/12/26 12:46:22;;;;;;;6.18;2.88;;;5.10;93.10;;;;;;5045419;28;20025;-85
2020/12/26 12:48:48;;;;;;;6.38;2.72;;;5.10;92.90;;;;;;5074734;28;20064;-83
2020/12/26 12:51:14;;;;;;;6.38;3.08;;;5.10;92.90;;;;;;5052281;28;20028;-85
2020/12/26 12:53:39;;;;;;;8.32;2.65;;;5.10;93.00;;;;;;5066694;28;20111;-85
2020/12/26 12:56:05;;;;;;;15.43;3.70;;;5.20;93.00;;;;;;5072895;28;20012;-85
2020/12/26 12:58:31;;;;;;;7.75;3.20;;;5.10;92.90;;;;;;5052159;28;20073;-86
2020/12/26 13:00:56;;;;;;;6.95;3.20;;;5.20;93.20;;;;;;5055766;28;20051;-86
2020/12/26 13:03:22;;;;;;;6.82;2.65;;;5.20;93.00;;;;;;5091519;28;20028;-86
2020/12/26 13:05:48;;;;;;;8.52;3.17;;;5.20;92.90;;;;;;5068508;28;20418;-86
2020/12/26 13:08:18;;;;;;;8.30;2.83;;;5.30;93.10;;;;;;5069549;28;20028;-86
2020/12/26 13:10:43;;;;;;;6.57;2.70;;;5.30;92.90;;;;;;5092990;28;20027;-86
2020/12/26 13:13:09;;;;;;;7.00;3.22;;;5.30;93.10;;;;;;5038117;28;20021;-87
2020/12/26 13:15:35;;;;;;;7.40;2.70;;;5.30;93.00;;;;;;5060017;28;20083;-86
2020/12/26 13:18:01;;;;;;;8.18;3.15;;;5.30;92.90;;;;;;5049110;28;20024;-86
2020/12/26 13:20:27;;;;;;;4.35;2.60;;;5.30;93.00;;;;;;5060571;28;20032;-86
2020/12/26 13:22:53;;;;;;;4.65;2.72;;;5.30;92.70;;;;;;5073856;28;20039;-87